Time;durP1;ratioP1;P1;durP2;ratioP2;P2;SDS_P1;SDS_P2;PMS_P1;PMS_P2;Temp;Humidity;BMP_temperature;BMP_pressure;BME280_temperature;BME280_humidity;BME280_pressure;Samples;Min_cycle;Max_cycle;Signal;HPM_P1;HPM_P2
2022/05/23 00:00:42;;;;;;;2.47;2.27;;;12.50;99.90;;;;;;5227059;28;20287;-49
2022/05/23 00:03:12;;;;;;;3.03;2.77;;;12.50;99.90;;;;;;5230425;28;20685;-48
2022/05/23 00:05:43;;;;;;;4.10;2.40;;;12.50;99.90;;;;;;5230006;28;20183;-49
2022/05/23 00:08:15;;;;;;;5.00;2.47;;;12.50;99.90;;;;;;5229617;28;20542;-48
2022/05/23 00:10:45;;;;;;;6.60;2.30;;;12.40;99.90;;;;;;5231451;28;20181;-49
2022/05/23 00:13:16;;;;;;;4.10;2.70;;;12.40;99.90;;;;;;5222548;28;20525;-48
2022/05/23 00:15:47;;;;;;;3.60;2.97;;;12.40;99.90;;;;;;5225989;28;20224;-47
2022/05/23 00:18:17;;;;;;;3.40;3.10;;;12.40;99.90;;;;;;5221855;28;20290;-47
2022/05/23 00:20:48;;;;;;;3.13;2.63;;;12.30;99.90;;;;;;5228406;28;20547;-48
2022/05/23 00:23:18;;;;;;;3.27;3.00;;;12.30;99.90;;;;;;5228731;28;20210;-49
2022/05/23 00:25:49;;;;;;;5.00;3.10;;;12.30;99.90;;;;;;5231053;28;20666;-48
2022/05/23 00:28:19;;;;;;;2.90;2.70;;;12.20;99.90;;;;;;5229377;28;20199;-48
2022/05/23 00:30:50;;;;;;;3.33;2.70;;;12.20;99.90;;;;;;5244033;28;21049;-48
2022/05/23 00:36:10;;;;;;;2.70;2.47;;;12.20;99.90;;;;;;5228458;28;20270;-47
2022/05/23 00:38:41;;;;;;;4.00;2.73;;;12.20;99.90;;;;;;5227942;28;20495;-48
2022/05/23 00:44:27;;;;;;;5.87;2.60;;;12.20;99.90;;;;;;5228786;28;20686;-48
2022/05/23 00:47:14;;;;;;;8.93;3.67;;;12.30;99.90;;;;;;5242167;28;20443;-47
2022/05/23 00:49:45;;;;;;;2.67;2.57;;;12.20;99.90;;;;;;5228267;28;20467;-49
2022/05/23 00:52:27;;;;;;;6.63;3.30;;;12.20;99.90;;;;;;5228839;28;20516;-48
2022/05/23 00:55:02;;;;;;;6.93;2.80;;;12.20;99.90;;;;;;5228408;28;20195;-48
2022/05/23 00:57:41;;;;;;;3.83;2.73;;;12.20;99.90;;;;;;5228008;28;20494;-47
2022/05/23 01:00:12;;;;;;;5.40;2.90;;;12.10;99.90;;;;;;5227177;28;20435;-48
2022/05/23 01:02:47;;;;;;;2.50;2.40;;;12.10;99.90;;;;;;5235496;28;20433;-48
2022/05/23 01:05:19;;;;;;;4.30;3.30;;;12.10;99.90;;;;;;5243556;28;20469;-49
2022/05/23 01:07:50;;;;;;;3.17;2.97;;;12.00;99.90;;;;;;5227977;28;20429;-48
2022/05/23 01:10:20;;;;;;;4.90;3.33;;;12.00;99.90;;;;;;5223054;28;20441;-48
2022/05/23 01:12:51;;;;;;;4.27;3.17;;;12.00;99.90;;;;;;5219497;28;20577;-49
2022/05/23 01:15:25;;;;;;;3.97;2.97;;;11.90;99.90;;;;;;5226773;28;20549;-48
2022/05/23 01:17:55;;;;;;;5.70;3.40;;;11.90;99.90;;;;;;5228171;28;20210;-48
2022/05/23 01:20:29;;;;;;;3.17;2.97;;;11.90;99.90;;;;;;5226864;28;20467;-50
2022/05/23 01:23:16;;;;;;;5.83;4.20;;;11.80;99.90;;;;;;5213868;28;20179;-48
2022/05/23 01:25:47;;;;;;;9.10;4.00;;;11.80;99.90;;;;;;5227149;28;21036;-49
2022/05/23 01:28:18;;;;;;;10.37;3.27;;;11.80;99.90;;;;;;5227660;28;20449;-49
2022/05/23 01:30:48;;;;;;;3.03;2.73;;;11.70;99.90;;;;;;5224974;28;20830;-47
2022/05/23 01:33:19;;;;;;;8.70;3.57;;;11.70;99.90;;;;;;5239125;28;20536;-48
2022/05/23 01:35:49;;;;;;;3.83;3.40;;;11.70;99.90;;;;;;5225811;28;20214;-48
2022/05/23 01:38:20;;;;;;;4.77;3.63;;;11.70;99.90;;;;;;5227792;28;20224;-47
2022/05/23 01:40:50;;;;;;;4.30;3.30;;;11.70;99.90;;;;;;5230365;28;20240;-48
2022/05/23 01:43:22;;;;;;;5.60;3.47;;;11.70;99.90;;;;;;5227670;28;20219;-48
2022/05/23 01:45:53;;;;;;;3.43;3.10;;;11.70;99.90;;;;;;5223265;28;20504;-48
2022/05/23 01:48:24;;;;;;;4.17;3.77;;;11.70;99.90;;;;;;5226809;28;20536;-47
2022/05/23 01:50:55;;;;;;;4.30;3.70;;;11.70;99.90;;;;;;5219443;28;20696;-48
2022/05/23 01:53:26;;;;;;;3.87;3.37;;;11.60;99.90;;;;;;5226097;28;20429;-50
2022/05/23 01:55:58;;;;;;;3.93;3.73;;;11.60;99.90;;;;;;5227746;28;20198;-48
2022/05/23 02:01:18;;;;;;;5.23;3.90;;;11.60;99.90;;;;;;5226819;28;20559;-48
2022/05/23 02:03:49;;;;;;;9.53;3.73;;;11.60;99.90;;;;;;5227123;28;20480;-48
2022/05/23 02:06:20;;;;;;;3.40;3.10;;;11.50;99.90;;;;;;5227284;28;20187;-48
2022/05/23 02:08:50;;;;;;;6.80;3.30;;;11.50;99.90;;;;;;5224472;28;20491;-49
2022/05/23 02:11:21;;;;;;;4.17;3.40;;;11.50;99.90;;;;;;5222414;28;20580;-49
2022/05/23 02:13:51;;;;;;;6.20;4.03;;;11.50;99.90;;;;;;5225765;28;20183;-48
2022/05/23 02:16:23;;;;;;;5.80;3.53;;;11.40;99.90;;;;;;5220780;28;20639;-48
2022/05/23 02:18:54;;;;;;;4.23;3.80;;;11.50;99.90;;;;;;5226430;28;20567;-50
2022/05/23 02:21:24;;;;;;;3.87;3.57;;;11.50;99.90;;;;;;5220727;28;20431;-48
2022/05/23 02:23:55;;;;;;;4.73;4.33;;;11.50;99.90;;;;;;5222762;28;20217;-49
2022/05/23 02:26:25;;;;;;;5.17;3.97;;;11.40;99.90;;;;;;5227680;28;20211;-48
2022/05/23 02:28:56;;;;;;;6.40;4.60;;;11.40;99.90;;;;;;5226564;28;20195;-48
2022/05/23 02:31:28;;;;;;;8.20;3.83;;;11.40;99.90;;;;;;5224857;28;20233;-48
2022/05/23 02:33:58;;;;;;;7.60;3.80;;;11.40;99.90;;;;;;5223362;28;20525;-48
2022/05/23 02:36:29;;;;;;;13.53;4.60;;;11.40;99.90;;;;;;5226518;28;20913;-47
2022/05/23 02:38:59;;;;;;;6.87;3.97;;;11.30;99.90;;;;;;5222860;28;20705;-48
2022/05/23 02:41:30;;;;;;;4.03;3.73;;;11.40;99.90;;;;;;5215728;28;20229;-47
2022/05/23 02:44:01;;;;;;;4.60;4.20;;;11.40;99.90;;;;;;5239724;28;20218;-46
2022/05/23 02:46:32;;;;;;;9.10;4.00;;;11.30;99.90;;;;;;5228534;28;20190;-48
2022/05/23 02:49:03;;;;;;;16.33;4.10;;;11.30;99.90;;;;;;5239385;28;20453;-47
2022/05/23 02:51:34;;;;;;;7.80;3.93;;;11.30;99.90;;;;;;5225106;28;20489;-48
2022/05/23 02:54:06;;;;;;;8.50;4.53;;;11.30;99.90;;;;;;5227204;28;20190;-48
2022/05/23 02:56:37;;;;;;;5.03;4.20;;;11.30;99.90;;;;;;5221160;28;20417;-50
2022/05/23 02:59:07;;;;;;;9.10;4.80;;;11.30;99.90;;;;;;5228048;28;20960;-47
2022/05/23 03:03:01;;;;;;;7.03;4.40;;;11.30;99.90;;;;;;5223475;28;20187;-48
2022/05/23 03:04:29;;;;;;;10.40;4.17;;;11.20;99.90;;;;;;5226592;28;20575;-48
2022/05/23 03:06:59;;;;;;;4.77;3.97;;;11.20;99.90;;;;;;5220937;28;20459;-49
2022/05/23 03:09:31;;;;;;;11.53;4.27;;;11.20;99.90;;;;;;5226560;28;20191;-47
2022/05/23 03:12:01;;;;;;;7.17;4.20;;;11.30;99.90;;;;;;5223863;28;20224;-48
2022/05/23 03:14:32;;;;;;;9.30;4.77;;;11.20;99.90;;;;;;5226152;28;20823;-48
2022/05/23 03:17:04;;;;;;;6.10;4.37;;;11.30;99.90;;;;;;5226113;28;20203;-48
2022/05/23 03:19:37;;;;;;;4.93;4.40;;;11.30;99.90;;;;;;5224813;28;20267;-48
2022/05/23 03:27:52;;;;;;;5.27;4.80;;;11.30;99.90;;;;;;5216372;28;20449;-47
2022/05/23 03:30:22;;;;;;;7.90;3.77;;;11.30;99.90;;;;;;5223675;28;20765;-48
2022/05/23 03:32:53;;;;;;;4.90;4.50;;;11.30;99.90;;;;;;5227347;28;20179;-48
2022/05/23 03:35:26;;;;;;;7.17;4.33;;;11.40;99.90;;;;;;5231336;28;20183;-49
2022/05/23 03:37:56;;;;;;;12.07;5.17;;;11.40;99.90;;;;;;5239838;22;20230;-47
2022/05/23 03:40:27;;;;;;;4.17;3.60;;;11.40;99.90;;;;;;5212210;28;20460;-46
2022/05/23 03:42:57;;;;;;;18.73;5.03;;;11.50;99.90;;;;;;5229482;28;20214;-46
2022/05/23 03:45:28;;;;;;;5.00;4.00;;;11.60;99.90;;;;;;5231668;28;20206;-45
2022/05/23 03:48:00;;;;;;;7.93;4.90;;;11.60;99.90;;;;;;5228526;28;20202;-46
2022/05/23 03:50:32;;;;;;;4.70;4.20;;;11.60;99.90;;;;;;5182928;28;20785;-48
2022/05/23 03:53:03;;;;;;;6.43;5.00;;;11.60;99.90;;;;;;5174124;28;20443;-47
2022/05/23 03:55:34;;;;;;;5.13;4.10;;;11.70;99.90;;;;;;5179847;28;20450;-46
2022/05/23 03:58:04;;;;;;;4.97;4.47;;;11.70;99.90;;;;;;5201620;28;20576;-46
2022/05/23 04:00:35;;;;;;;10.03;5.10;;;11.80;99.90;;;;;;5185134;28;20212;-46
2022/05/23 04:03:05;;;;;;;6.03;5.03;;;11.80;99.90;;;;;;5190346;28;20188;-46
2022/05/23 04:05:41;;;;;;;5.23;4.80;;;11.90;99.90;;;;;;5210325;28;20183;-46
2022/05/23 04:08:12;;;;;;;7.73;4.90;;;11.90;99.90;;;;;;5210399;28;20257;-45
2022/05/23 04:10:42;;;;;;;8.30;4.63;;;11.90;99.90;;;;;;5218498;28;20434;-49
2022/05/23 04:13:13;;;;;;;5.17;4.47;;;12.00;99.90;;;;;;5198307;28;20469;-46
2022/05/23 04:15:43;;;;;;;8.23;5.67;;;12.20;99.90;;;;;;5193486;28;20215;-45
2022/05/23 04:18:14;;;;;;;10.07;4.60;;;12.40;99.90;;;;;;5191777;28;20535;-47
2022/05/23 04:20:45;;;;;;;10.20;4.73;;;13.20;99.90;;;;;;5210844;28;20191;-47
2022/05/23 04:23:16;;;;;;;10.63;4.80;;;14.00;99.90;;;;;;5190907;28;20289;-47
2022/05/23 04:25:48;;;;;;;10.70;5.07;;;14.50;99.90;;;;;;5185945;28;20445;-46
2022/05/23 04:28:20;;;;;;;5.03;4.73;;;14.00;99.90;;;;;;5222489;28;20229;-46
2022/05/23 04:30:50;;;;;;;5.10;4.70;;;13.60;99.90;;;;;;5218655;28;20434;-48
2022/05/23 04:36:10;;;;;;;4.37;4.03;;;13.10;99.90;;;;;;5197532;28;20561;-45
2022/05/23 04:38:41;;;;;;;7.50;4.83;;;13.10;99.90;;;;;;5217428;28;20990;-47
2022/05/23 04:41:12;;;;;;;10.40;4.90;;;13.10;99.90;;;;;;5192416;28;20190;-46
2022/05/23 04:43:42;;;;;;;8.43;4.57;;;13.10;99.90;;;;;;5198351;28;20211;-46
2022/05/23 04:46:13;;;;;;;5.40;4.70;;;13.40;99.90;;;;;;5189266;28;20226;-47
2022/05/23 04:51:32;;;;;;;10.87;4.17;;;15.60;99.90;;;;;;5189771;28;20206;-47
2022/05/23 04:54:03;;;;;;;6.70;4.30;;;17.40;99.90;;;;;;5205250;28;20435;-47
2022/05/23 04:56:34;;;;;;;10.33;4.33;;;19.00;95.40;;;;;;5223989;28;20194;-47
2022/05/23 04:59:05;;;;;;;3.57;3.37;;;20.20;86.20;;;;;;5206074;28;20209;-47
2022/05/23 05:01:35;;;;;;;4.53;4.13;;;21.40;71.80;;;;;;5208294;28;20566;-50
2022/05/23 05:04:06;;;;;;;5.27;4.17;;;22.30;61.60;;;;;;5194914;28;20452;-45
2022/05/23 05:06:36;;;;;;;5.60;4.20;;;23.10;57.50;;;;;;5190054;28;20632;-48
2022/05/23 05:09:07;;;;;;;6.47;4.03;;;23.50;54.90;;;;;;5208855;28;20298;-46
2022/05/23 05:11:38;;;;;;;4.17;3.67;;;23.70;53.30;;;;;;5197049;28;20315;-47
2022/05/23 05:14:09;;;;;;;3.90;3.70;;;24.20;51.80;;;;;;5198272;28;20616;-47
2022/05/23 05:16:39;;;;;;;3.93;3.70;;;25.30;49.30;;;;;;5194681;28;20445;-46
2022/05/23 05:19:10;;;;;;;5.67;3.90;;;25.70;46.60;;;;;;5204040;28;20203;-46
2022/05/23 05:21:40;;;;;;;3.97;3.63;;;25.90;45.90;;;;;;5182519;28;20175;-47
2022/05/23 05:24:11;;;;;;;4.20;3.80;;;25.80;45.00;;;;;;5202607;28;20642;-46
2022/05/23 05:26:42;;;;;;;4.23;3.83;;;26.30;44.60;;;;;;5183462;28;20268;-47
2022/05/23 05:29:12;;;;;;;4.43;3.73;;;26.40;43.50;;;;;;5183028;28;20609;-48
2022/05/23 05:31:54;;;;;;;5.17;3.40;;;26.40;43.20;;;;;;5202309;28;20214;-48
2022/05/23 05:34:36;;;;;;;4.00;3.30;;;26.30;43.50;;;;;;5195177;28;20184;-48
2022/05/23 05:37:15;;;;;;;7.23;3.77;;;26.70;41.80;;;;;;5203962;28;20446;-48
2022/05/23 05:39:47;;;;;;;3.70;3.30;;;26.70;41.60;;;;;;5204078;28;20446;-49
2022/05/23 05:42:40;;;;;;;4.90;3.80;;;26.70;42.20;;;;;;5181512;28;20430;-47
2022/05/23 05:45:17;;;;;;;3.40;3.10;;;27.10;40.50;;;;;;5183046;28;20937;-48
2022/05/23 05:47:49;;;;;;;5.57;3.43;;;27.90;39.30;;;;;;5202456;28;20462;-46
2022/05/23 05:50:26;;;;;;;3.03;2.83;;;28.10;38.20;;;;;;5199623;28;20441;-45
2022/05/23 05:53:00;;;;;;;3.03;2.83;;;27.30;39.10;;;;;;5164553;28;20491;-48
2022/05/23 05:55:31;;;;;;;6.03;2.73;;;26.90;39.60;;;;;;5202389;28;20425;-46
2022/05/23 05:58:02;;;;;;;3.57;3.37;;;27.10;39.70;;;;;;5169192;28;20461;-47
2022/05/23 06:00:32;;;;;;;2.90;2.70;;;27.10;39.30;;;;;;5202128;28;20450;-48
2022/05/23 06:03:03;;;;;;;3.20;3.00;;;26.90;40.10;;;;;;5191943;28;20272;-47
2022/05/23 06:11:23;;;;;;;2.90;2.70;;;28.20;38.40;;;;;;5206132;28;20620;-46
2022/05/23 06:11:29;;;;;;;2.90;2.60;;;28.10;37.50;;;;;;5191964;28;20477;-47
2022/05/23 06:14:03;;;;;;;4.53;3.07;;;29.00;36.20;;;;;;5201846;28;20940;-46
2022/05/23 06:16:36;;;;;;;4.27;2.50;;;29.30;35.40;;;;;;5196219;28;20446;-49
2022/05/23 06:19:07;;;;;;;2.13;2.00;;;29.10;35.30;;;;;;5182846;28;20454;-47
2022/05/23 06:21:37;;;;;;;2.50;2.30;;;28.10;35.90;;;;;;5176966;28;20856;-46
2022/05/23 06:24:08;;;;;;;2.30;2.20;;;28.00;36.60;;;;;;5199716;28;20295;-48
2022/05/23 06:26:39;;;;;;;2.50;2.30;;;28.00;36.20;;;;;;5192387;28;20636;-48
2022/05/23 06:29:10;;;;;;;2.13;1.90;;;27.60;36.90;;;;;;5199718;28;20218;-47
2022/05/23 06:31:41;;;;;;;2.87;2.10;;;28.10;37.20;;;;;;5197522;28;20275;-46
2022/05/23 06:34:12;;;;;;;3.47;2.10;;;29.40;35.40;;;;;;5188979;28;20442;-47
2022/05/23 06:36:42;;;;;;;4.30;2.27;;;29.90;34.40;;;;;;5191661;28;20449;-47
2022/05/23 06:39:13;;;;;;;2.17;2.07;;;30.00;32.90;;;;;;5198346;28;20246;-52
2022/05/23 06:41:44;;;;;;;2.00;1.77;;;29.50;33.60;;;;;;5176233;28;20188;-47
2022/05/23 06:44:14;;;;;;;4.47;2.37;;;29.20;33.30;;;;;;5182835;28;20374;-45
2022/05/23 06:46:46;;;;;;;1.90;1.57;;;29.20;34.00;;;;;;5183431;28;20656;-47
2022/05/23 06:49:17;;;;;;;2.40;2.20;;;29.50;33.70;;;;;;5187610;28;20618;-48
2022/05/23 06:51:51;;;;;;;1.70;1.60;;;30.00;32.60;;;;;;5183109;28;20427;-46
2022/05/23 06:54:23;;;;;;;1.80;1.70;;;30.10;31.80;;;;;;5200065;28;20507;-49
2022/05/23 06:56:54;;;;;;;1.53;1.40;;;29.30;33.00;;;;;;5197041;28;20460;-48
2022/05/23 06:59:24;;;;;;;4.27;2.33;;;28.70;33.70;;;;;;5166009;28;20893;-48
2022/05/23 07:01:55;;;;;;;1.60;1.50;;;28.70;34.60;;;;;;5177084;28;20708;-47
2022/05/23 07:12:19;;;;;;;3.70;1.77;;;28.60;33.60;;;;;;5185587;28;20706;-48
2022/05/23 07:12:57;;;;;;;1.57;1.47;;;28.00;34.20;;;;;;5202785;28;20936;-46
2022/05/23 07:15:27;;;;;;;2.30;2.10;;;28.40;34.20;;;;;;5186731;28;20973;-47
2022/05/23 07:17:58;;;;;;;1.67;1.47;;;28.80;33.60;;;;;;5182412;28;20497;-45
2022/05/23 07:20:29;;;;;;;4.47;2.47;;;28.60;33.90;;;;;;5178307;28;20233;-51
2022/05/23 07:23:00;;;;;;;3.67;1.83;;;28.30;33.40;;;;;;5183143;28;20521;-47
2022/05/23 07:25:31;;;;;;;2.10;2.00;;;27.20;34.50;;;;;;5190816;28;20473;-48
2022/05/23 07:28:01;;;;;;;3.70;2.00;;;26.20;36.30;;;;;;5199448;28;20262;-48
2022/05/23 07:30:33;;;;;;;2.77;1.57;;;26.10;36.70;;;;;;5179547;28;20270;-47
2022/05/23 07:33:03;;;;;;;2.20;1.83;;;26.50;36.40;;;;;;5181232;28;20184;-48
2022/05/23 07:35:34;;;;;;;4.00;1.90;;;26.60;36.00;;;;;;5192687;28;20434;-48
2022/05/23 07:38:04;;;;;;;2.30;1.50;;;26.90;36.60;;;;;;5205321;28;20301;-46
2022/05/23 07:40:36;;;;;;;4.47;1.70;;;28.10;34.20;;;;;;5184744;28;20208;-46
2022/05/23 07:43:07;;;;;;;1.40;1.40;;;28.10;33.80;;;;;;5205851;28;20820;-48
2022/05/23 07:45:37;;;;;;;2.77;1.93;;;28.50;33.70;;;;;;5198892;28;20218;-49
2022/05/23 07:48:08;;;;;;;2.23;1.50;;;28.20;33.60;;;;;;5200417;28;20204;-47
2022/05/23 07:50:38;;;;;;;2.07;1.83;;;27.90;33.70;;;;;;5185629;28;20745;-47
2022/05/23 08:01:49;;;;;;;4.80;2.03;;;28.70;33.10;;;;;;5169884;28;20434;-48
2022/05/23 08:04:20;;;;;;;6.17;1.20;;;27.90;33.40;;;;;;5186112;28;20824;-46
2022/05/23 08:06:52;;;;;;;2.13;1.57;;;27.30;34.30;;;;;;5204361;28;20437;-47
2022/05/23 08:09:23;;;;;;;4.43;1.50;;;27.40;33.50;;;;;;5196610;28;20539;-46
2022/05/23 08:11:55;;;;;;;3.40;1.20;;;27.40;34.40;;;;;;5185680;28;20469;-48
2022/05/23 08:14:26;;;;;;;6.33;2.10;;;27.40;33.80;;;;;;5201188;28;20187;-49
2022/05/23 08:17:00;;;;;;;1.40;1.40;;;27.50;34.10;;;;;;5197904;28;20449;-46
2022/05/23 08:19:30;;;;;;;4.80;1.50;;;27.70;33.20;;;;;;5186357;28;20690;-46
2022/05/23 08:22:01;;;;;;;2.70;1.67;;;28.50;32.40;;;;;;5199813;28;20571;-46
2022/05/23 08:24:33;;;;;;;1.10;1.00;;;28.40;31.00;;;;;;5187005;28;20203;-50
2022/05/23 08:27:04;;;;;;;1.37;1.37;;;28.30;31.40;;;;;;5188842;28;20183;-46
2022/05/23 08:29:38;;;;;;;4.83;1.60;;;26.90;32.50;;;;;;5184602;28;20484;-47
2022/05/23 08:32:11;;;;;;;2.70;1.47;;;26.30;33.90;;;;;;5184705;28;20449;-47
2022/05/23 08:34:42;;;;;;;7.20;1.37;;;26.30;34.20;;;;;;5204081;28;20781;-48
2022/05/23 08:37:13;;;;;;;2.10;1.53;;;26.30;34.20;;;;;;5201731;28;20432;-47
2022/05/23 08:39:44;;;;;;;2.50;1.40;;;26.30;34.60;;;;;;5182504;28;20188;-47
2022/05/23 08:42:45;;;;;;;2.13;1.70;;;26.40;34.30;;;;;;5207840;28;20623;-48
2022/05/23 08:45:31;;;;;;;3.77;2.00;;;26.20;35.20;;;;;;5200202;28;20296;-46
2022/05/23 08:48:23;;;;;;;1.23;1.23;;;24.90;36.70;;;;;;5168339;28;20577;-50
2022/05/23 08:51:16;;;;;;;1.23;1.13;;;23.20;38.50;;;;;;5187327;28;20972;-48
2022/05/23 08:54:20;;;;;;;1.37;1.27;;;22.00;40.20;;;;;;5204883;28;20450;-48
2022/05/23 08:56:56;;;;;;;7.63;2.00;;;21.30;42.10;;;;;;5182854;28;20447;-47
2022/05/23 08:59:31;;;;;;;1.57;1.20;;;21.10;43.30;;;;;;5202500;28;20484;-47
2022/05/23 09:02:08;;;;;;;6.93;1.77;;;21.20;43.30;;;;;;5189887;28;20845;-46
2022/05/23 09:04:52;;;;;;;2.27;1.63;;;21.60;43.00;;;;;;5190267;28;20485;-49
2022/05/23 09:07:57;;;;;;;3.30;1.40;;;21.60;41.90;;;;;;5200960;28;20486;-46
2022/05/23 09:10:45;;;;;;;1.20;1.20;;;21.50;43.20;;;;;;5148341;28;20557;-46
2022/05/23 09:13:17;;;;;;;6.00;1.90;;;21.60;42.60;;;;;;5191903;28;20431;-48
2022/05/23 09:15:52;;;;;;;1.87;1.77;;;21.80;42.70;;;;;;5191691;28;20532;-46
2022/05/23 09:18:26;;;;;;;1.50;1.40;;;21.90;42.50;;;;;;5201822;28;20585;-46
2022/05/23 09:21:02;;;;;;;1.93;1.53;;;21.40;42.60;;;;;;5197202;28;20805;-47
2022/05/23 09:23:38;;;;;;;2.53;1.70;;;21.20;43.00;;;;;;5198529;28;20489;-48
2022/05/23 09:26:20;;;;;;;7.50;1.90;;;21.20;43.40;;;;;;5187187;28;20853;-49
2022/05/23 09:28:51;;;;;;;8.90;1.83;;;21.20;43.40;;;;;;5201856;28;20526;-50
2022/05/23 09:31:32;;;;;;;1.90;1.73;;;21.10;43.60;;;;;;5192582;28;20786;-48
2022/05/23 09:34:04;;;;;;;2.53;1.40;;;21.20;43.60;;;;;;5181505;28;20453;-47
2022/05/23 09:36:40;;;;;;;3.63;1.70;;;21.30;43.50;;;;;;5196785;28;20436;-47
2022/05/23 09:39:20;;;;;;;1.43;1.33;;;21.40;42.60;;;;;;5204090;28;21051;-46
2022/05/23 09:47:45;;;;;;;1.53;1.40;;;21.20;43.10;;;;;;5205711;28;20533;-47
2022/05/23 09:50:29;;;;;;;3.20;1.60;;;21.10;43.10;;;;;;5200971;28;20441;-47
2022/05/23 09:53:01;;;;;;;1.33;1.23;;;21.20;41.80;;;;;;5196645;28;20462;-46
2022/05/23 09:55:35;;;;;;;4.20;2.10;;;21.50;41.20;;;;;;5195043;28;20938;-46
2022/05/23 09:58:13;;;;;;;2.83;1.17;;;22.00;40.90;;;;;;5196475;28;20462;-48
2022/05/23 10:00:59;;;;;;;2.10;0.97;;;22.60;39.50;;;;;;5197791;28;20456;-47
2022/05/23 10:03:32;;;;;;;3.40;1.60;;;22.50;38.50;;;;;;5198171;28;20513;-50
2022/05/23 10:06:12;;;;;;;2.10;1.50;;;22.20;37.20;;;;;;5179721;28;20443;-48
2022/05/23 10:08:45;;;;;;;1.63;0.90;;;22.00;38.50;;;;;;5182177;28;20461;-46
2022/05/23 10:11:30;;;;;;;0.80;0.80;;;22.10;38.30;;;;;;5180074;28;20527;-47
2022/05/23 10:14:05;;;;;;;1.40;1.00;;;22.50;39.00;;;;;;5203992;28;20587;-46
2022/05/23 10:16:46;;;;;;;1.30;1.20;;;22.90;38.30;;;;;;5186938;28;20434;-49
2022/05/23 10:19:33;;;;;;;2.87;1.73;;;23.40;38.50;;;;;;5180617;28;20471;-46
2022/05/23 10:22:20;;;;;;;10.80;1.40;;;23.40;37.40;;;;;;5180350;28;20529;-47
2022/05/23 10:25:05;;;;;;;1.10;1.10;;;23.30;37.60;;;;;;5194015;28;21013;-53
2022/05/23 10:27:50;;;;;;;4.13;1.97;;;23.10;38.10;;;;;;5195765;28;20970;-46
2022/05/23 10:30:24;;;;;;;1.17;1.17;;;22.70;38.60;;;;;;5176768;28;20426;-48
2022/05/23 10:33:02;;;;;;;1.90;1.80;;;22.60;38.80;;;;;;5191415;28;20839;-47
2022/05/23 10:35:58;;;;;;;2.93;2.70;;;22.70;39.40;;;;;;5194680;28;20438;-47
2022/05/23 10:44:50;;;;;;;4.53;1.33;;;22.60;38.90;;;;;;5201230;28;20500;-48
2022/05/23 10:47:27;;;;;;;5.53;1.60;;;22.60;39.40;;;;;;5180375;28;20896;-49
2022/05/23 10:50:18;;;;;;;1.57;1.40;;;22.70;39.60;;;;;;5196069;28;20771;-46
2022/05/23 10:53:11;;;;;;;1.47;1.37;;;22.70;39.20;;;;;;5192118;28;20988;-46
2022/05/23 10:56:12;;;;;;;1.50;1.40;;;22.60;39.60;;;;;;5191678;28;20955;-49
2022/05/23 10:58:58;;;;;;;4.90;1.63;;;22.50;39.80;;;;;;5197758;28;20511;-46
2022/05/23 11:01:29;;;;;;;2.93;1.93;;;22.50;40.20;;;;;;5195826;28;20439;-50
2022/05/23 11:04:14;;;;;;;1.63;1.40;;;22.90;39.70;;;;;;5184219;28;20997;-48
2022/05/23 11:06:58;;;;;;;1.07;1.07;;;23.20;38.30;;;;;;5183160;28;20191;-47
2022/05/23 11:09:37;;;;;;;1.33;1.10;;;23.40;38.70;;;;;;5200167;28;20434;-49
2022/05/23 11:12:29;;;;;;;2.73;1.30;;;23.70;37.50;;;;;;5200224;28;20574;-49
2022/05/23 11:15:28;;;;;;;7.80;1.50;;;23.80;37.60;;;;;;5180861;28;20529;-47
2022/05/23 11:18:17;;;;;;;1.37;1.27;;;23.80;37.40;;;;;;5202832;28;20458;-47
2022/05/23 11:20:54;;;;;;;2.53;1.33;;;23.80;37.60;;;;;;5176384;28;20794;-49
2022/05/23 11:23:24;;;;;;;1.00;1.00;;;23.70;37.90;;;;;;5184155;28;20793;-45
2022/05/23 11:26:20;;;;;;;1.80;1.07;;;23.80;37.00;;;;;;5183700;28;20453;-48
2022/05/23 11:34:52;;;;;;;1.03;0.90;;;23.10;37.50;;;;;;5235305;22;20515;-52
2022/05/23 11:40:08;;;;;;;1.60;1.50;;;22.70;38.30;;;;;;5242683;28;20428;-52
2022/05/23 11:43:00;;;;;;;3.67;1.60;;;22.80;38.30;;;;;;5240365;28;20466;-51
2022/05/23 11:48:39;;;;;;;1.00;1.00;;;22.60;39.00;;;;;;5225433;28;20424;-52
2022/05/23 11:51:18;;;;;;;7.83;1.20;;;22.60;38.70;;;;;;5225725;28;20437;-51
2022/05/23 11:53:58;;;;;;;2.10;1.27;;;22.60;38.60;;;;;;5227372;28;20468;-51
2022/05/23 11:56:37;;;;;;;3.07;1.70;;;22.60;39.20;;;;;;5225642;28;20462;-52
2022/05/23 11:59:11;;;;;;;1.53;1.43;;;22.20;39.50;;;;;;5227280;28;20830;-52
2022/05/23 12:01:42;;;;;;;1.93;1.43;;;22.10;40.10;;;;;;5227316;28;20437;-52
2022/05/23 12:04:16;;;;;;;3.97;1.60;;;22.20;40.80;;;;;;5223219;28;20523;-52
2022/05/23 12:06:48;;;;;;;2.53;1.47;;;22.30;40.40;;;;;;5228555;28;20182;-52
2022/05/23 12:09:18;;;;;;;4.50;1.50;;;22.60;40.50;;;;;;5225202;28;20429;-51
2022/05/23 12:11:51;;;;;;;1.40;1.17;;;22.80;40.00;;;;;;5222058;28;20490;-52
2022/05/23 12:14:28;;;;;;;1.80;1.23;;;22.80;39.60;;;;;;5225674;28;20198;-51
2022/05/23 12:16:58;;;;;;;6.53;1.40;;;22.70;39.40;;;;;;5222607;28;20505;-51
2022/05/23 12:19:41;;;;;;;2.20;1.53;;;22.50;40.10;;;;;;5224375;28;20430;-52
2022/05/23 12:22:26;;;;;;;6.20;1.60;;;22.40;40.20;;;;;;5225331;28;20187;-52
2022/05/23 12:25:02;;;;;;;3.03;1.20;;;22.70;39.70;;;;;;5238077;28;21054;-51
2022/05/23 12:27:34;;;;;;;3.90;1.80;;;22.90;40.10;;;;;;5241164;28;20432;-52
2022/05/23 12:30:17;;;;;;;3.50;1.57;;;23.20;40.10;;;;;;5229650;28;20417;-51
2022/05/23 12:32:51;;;;;;;7.37;2.40;;;23.50;39.90;;;;;;5228398;28;20475;-52
2022/05/23 12:35:44;;;;;;;1.43;1.37;;;23.40;39.40;;;;;;5224773;28;20820;-51
2022/05/23 12:38:33;;;;;;;7.40;1.43;;;23.50;39.20;;;;;;5224133;28;20433;-53
2022/05/23 12:41:15;;;;;;;1.40;1.40;;;23.30;39.50;;;;;;5222611;28;20446;-51
2022/05/23 12:43:58;;;;;;;1.40;1.30;;;23.30;39.30;;;;;;5221572;28;20472;-51
2022/05/23 12:46:57;;;;;;;3.30;1.60;;;23.20;39.20;;;;;;5220673;28;20476;-53
2022/05/23 12:49:55;;;;;;;4.13;1.50;;;22.80;39.40;;;;;;5220249;28;20528;-53
2022/05/23 12:52:53;;;;;;;3.17;1.30;;;22.70;40.10;;;;;;5222583;28;20448;-51
2022/05/23 12:55:52;;;;;;;1.50;1.40;;;22.60;40.20;;;;;;5218376;28;20459;-51
2022/05/23 12:58:51;;;;;;;4.00;1.30;;;22.40;39.80;;;;;;5222003;28;20444;-52
2022/05/23 13:01:28;;;;;;;3.20;1.50;;;22.60;40.40;;;;;;5241133;28;20475;-51
2022/05/23 13:04:11;;;;;;;3.03;1.33;;;22.60;39.70;;;;;;5223455;28;20802;-52
2022/05/23 13:07:00;;;;;;;1.40;1.30;;;22.90;39.10;;;;;;5223893;28;20437;-51
2022/05/23 13:09:46;;;;;;;2.77;1.50;;;23.10;39.30;;;;;;5221555;28;20429;-52
2022/05/23 13:12:38;;;;;;;1.70;1.60;;;23.40;38.70;;;;;;5223085;28;20544;-51
2022/05/23 13:15:10;;;;;;;1.43;1.40;;;23.20;39.00;;;;;;5219478;28;20445;-50
2022/05/23 13:17:43;;;;;;;1.10;1.10;;;23.20;38.50;;;;;;5222308;28;20930;-53
2022/05/23 13:23:26;;;;;;;1.33;1.10;;;23.30;37.70;;;;;;5221720;28;20520;-53
2022/05/23 13:26:04;;;;;;;3.13;2.03;;;23.60;38.30;;;;;;5219082;28;20487;-52
2022/05/23 13:28:41;;;;;;;1.50;1.00;;;23.90;37.20;;;;;;5223574;28;20433;-53
2022/05/23 13:31:30;;;;;;;3.03;1.40;;;24.30;36.60;;;;;;5219218;28;20480;-52
2022/05/23 13:34:01;;;;;;;5.27;1.20;;;24.00;36.30;;;;;;5222542;28;20469;-54
2022/05/23 13:36:46;;;;;;;1.43;1.20;;;23.70;37.20;;;;;;5218437;28;20442;-53
2022/05/23 13:39:17;;;;;;;2.63;1.50;;;23.60;37.80;;;;;;5217979;28;20550;-51
2022/05/23 13:41:48;;;;;;;1.53;1.43;;;23.40;37.60;;;;;;5224488;28;20463;-53
2022/05/23 13:44:25;;;;;;;1.40;1.30;;;23.10;38.10;;;;;;5226792;28;20491;-51
2022/05/23 13:47:07;;;;;;;2.13;1.33;;;22.90;38.60;;;;;;5220505;28;20197;-51
2022/05/23 13:49:44;;;;;;;1.30;1.20;;;22.80;38.90;;;;;;5240338;28;20526;-51
2022/05/23 13:52:34;;;;;;;2.43;1.50;;;22.80;38.90;;;;;;5223777;28;20464;-51
2022/05/23 13:55:16;;;;;;;3.73;1.57;;;23.00;38.50;;;;;;5222767;28;20452;-54
2022/05/23 13:57:56;;;;;;;1.53;1.23;;;23.20;38.40;;;;;;5222339;28;20500;-51
2022/05/23 14:00:34;;;;;;;1.47;1.40;;;23.40;38.20;;;;;;5225036;28;20599;-53
2022/05/23 14:03:09;;;;;;;2.50;1.60;;;23.40;38.20;;;;;;5221851;28;20429;-54
2022/05/23 14:05:44;;;;;;;2.07;1.27;;;23.30;38.00;;;;;;5224822;28;20582;-52
2022/05/23 14:08:20;;;;;;;2.73;1.70;;;23.40;38.50;;;;;;5223213;28;20483;-51
2022/05/23 14:10:50;;;;;;;3.00;2.10;;;23.70;38.80;;;;;;5225607;28;20428;-53
2022/05/23 14:13:21;;;;;;;8.17;2.40;;;23.90;38.40;;;;;;5225231;28;20537;-52
2022/05/23 14:15:54;;;;;;;1.50;1.40;;;24.20;38.40;;;;;;5221312;28;20191;-52
2022/05/23 14:18:30;;;;;;;1.67;1.57;;;24.20;38.50;;;;;;5226779;28;20661;-53
2022/05/23 14:21:01;;;;;;;3.70;1.90;;;24.10;37.40;;;;;;5228700;28;20523;-53
2022/05/23 14:23:33;;;;;;;1.60;1.50;;;23.80;37.70;;;;;;5222172;28;20468;-53
2022/05/23 14:26:08;;;;;;;6.53;2.07;;;23.20;38.10;;;;;;5221057;28;20445;-51
2022/05/23 14:28:41;;;;;;;2.93;1.40;;;23.00;39.20;;;;;;5231848;28;20807;-53
2022/05/23 14:31:25;;;;;;;1.30;1.10;;;23.00;39.90;;;;;;5225106;28;20429;-52